createdAt,value
2017-11-20T00:01:05.665Z,1.30
2017-11-20T00:03:34.114Z,1.50
2017-11-20T00:06:02.523Z,1.15
2017-11-20T00:08:31.124Z,1.50
2017-11-20T00:10:59.515Z,1.05
2017-11-20T00:13:27.948Z,0.90
2017-11-20T00:15:57.176Z,1.25
2017-11-20T00:18:25.578Z,0.95
2017-11-20T00:20:54.063Z,0.80
2017-11-20T00:23:23.363Z,2.17
2017-11-20T00:25:51.740Z,0.90
2017-11-20T00:28:20.162Z,0.77
2017-11-20T00:30:50.251Z,1.85
2017-11-20T00:33:19.509Z,0.90
2017-11-20T00:35:47.915Z,0.95
2017-11-20T00:38:16.301Z,0.98
2017-11-20T00:40:44.690Z,0.95
2017-11-20T00:43:13.193Z,1.60
2017-11-20T00:45:42.383Z,1.40
2017-11-20T00:48:10.774Z,0.82
2017-11-20T00:50:39.184Z,1.27
2017-11-20T00:53:07.574Z,1.20
2017-11-20T00:55:36.038Z,1.40
2017-11-20T00:58:04.464Z,1.10
2017-11-20T01:00:32.885Z,1.60
2017-11-20T01:03:01.979Z,1.30
2017-11-20T01:05:30.490Z,1.50
2017-11-20T01:08:00.152Z,1.10
2017-11-20T01:10:28.814Z,1.42
2017-11-20T01:12:57.221Z,1.98
2017-11-20T01:15:25.596Z,1.25
2017-11-20T01:17:53.977Z,1.10
2017-11-20T01:20:22.400Z,1.25
2017-11-20T01:22:50.774Z,1.00
2017-11-20T01:25:19.142Z,1.83
2017-11-20T01:27:47.645Z,1.20
2017-11-20T01:30:16.045Z,1.70
2017-11-20T01:32:44.423Z,2.45
2017-11-20T01:35:13.735Z,1.60
2017-11-20T01:37:42.110Z,2.37
2017-11-20T01:40:10.481Z,2.47
2017-11-20T01:42:38.898Z,2.33
2017-11-20T01:45:07.971Z,2.30
2017-11-20T01:47:36.359Z,2.75
2017-11-20T01:50:04.915Z,2.30
2017-11-20T01:52:33.293Z,2.60
2017-11-20T01:55:01.692Z,3.10
2017-11-20T01:57:30.091Z,2.78
2017-11-20T01:59:58.469Z,2.95
2017-11-20T02:02:26.885Z,2.72
2017-11-20T02:04:56.064Z,2.35
2017-11-20T02:07:24.479Z,2.70
2017-11-20T02:09:52.849Z,1.65
2017-11-20T02:12:21.489Z,2.72
2017-11-20T02:14:49.889Z,2.50
2017-11-20T02:17:19.063Z,3.65
2017-11-20T02:19:47.501Z,3.10
2017-11-20T02:22:15.941Z,3.00
2017-11-20T02:24:44.333Z,2.60
2017-11-20T02:27:12.746Z,3.10
2017-11-20T02:29:41.196Z,3.72
2017-11-20T02:32:09.584Z,3.37
2017-11-20T02:34:38.225Z,3.30
2017-11-20T02:37:07.399Z,3.50
2017-11-20T02:39:35.992Z,3.28
2017-11-20T02:42:04.412Z,3.55
2017-11-20T02:44:33.510Z,3.37
2017-11-20T02:47:02.408Z,4.05
2017-11-20T02:49:30.825Z,3.55
2017-11-20T02:51:59.787Z,3.60
2017-11-20T02:54:28.939Z,3.40
2017-11-20T02:56:58.362Z,3.55
2017-11-20T02:59:26.741Z,4.12
2017-11-20T03:01:55.154Z,3.78
2017-11-20T03:04:24.338Z,3.83
2017-11-20T03:06:52.719Z,3.60
2017-11-20T03:09:21.859Z,4.18
2017-11-20T03:11:50.528Z,4.00
2017-11-20T03:14:18.924Z,3.70
2017-11-20T03:16:47.904Z,3.15
2017-11-20T03:19:17.305Z,3.58
2017-11-20T03:21:45.676Z,3.90
2017-11-20T03:24:14.081Z,4.80
2017-11-20T03:26:42.532Z,3.37
2017-11-20T03:29:11.685Z,3.65
2017-11-20T03:31:40.073Z,3.78
2017-11-20T03:34:08.481Z,3.55
2017-11-20T03:36:37.650Z,3.40
2017-11-20T03:39:06.018Z,4.10
2017-11-20T03:41:34.603Z,3.62
2017-11-20T03:44:02.981Z,3.40
2017-11-20T03:46:31.385Z,3.08
2017-11-20T03:48:59.806Z,3.92
2017-11-20T03:51:28.188Z,3.25
2017-11-20T03:53:56.591Z,2.87
2017-11-20T03:56:26.021Z,3.20
2017-11-20T03:58:55.401Z,3.22
2017-11-20T04:01:23.785Z,3.05
2017-11-20T04:03:52.459Z,2.75
2017-11-20T04:06:20.838Z,4.70
2017-11-20T04:08:50.013Z,5.32
2017-11-20T04:11:18.448Z,4.45
2017-11-20T04:13:46.846Z,4.40
2017-11-20T04:16:16.033Z,4.03
2017-11-20T04:18:44.452Z,3.55
2017-11-20T04:21:12.836Z,3.00
2017-11-20T04:23:41.977Z,2.78
2017-11-20T04:26:10.561Z,3.50
2017-11-20T04:28:38.940Z,3.75
2017-11-20T04:31:07.318Z,3.00
2017-11-20T04:33:35.733Z,3.85
2017-11-20T04:36:04.866Z,3.55
2017-11-20T04:38:33.279Z,3.70
2017-11-20T04:41:02.371Z,3.65
2017-11-20T04:43:30.754Z,3.58
2017-11-20T04:45:59.118Z,3.33
2017-11-20T04:48:27.682Z,4.20
2017-11-20T04:50:56.057Z,3.62
2017-11-20T04:53:24.435Z,3.08
2017-11-20T04:55:52.852Z,3.53
2017-11-20T04:58:21.230Z,4.12
2017-11-20T05:00:49.605Z,4.43
2017-11-20T05:03:18.031Z,3.58
2017-11-20T05:05:46.411Z,3.47
2017-11-20T05:08:15.558Z,4.12
2017-11-20T05:10:44.027Z,3.40
2017-11-20T05:13:12.416Z,4.25
2017-11-20T05:15:41.486Z,2.85
2017-11-20T05:18:10.273Z,3.45
2017-11-20T05:20:38.653Z,3.25
2017-11-20T05:23:07.266Z,3.60
2017-11-20T05:25:35.677Z,4.03
2017-11-20T05:28:04.060Z,3.62
2017-11-20T05:30:32.445Z,3.30
2017-11-20T05:33:01.718Z,4.20
2017-11-20T05:35:30.097Z,3.47
2017-11-20T05:37:58.482Z,3.08
2017-11-20T05:40:26.884Z,3.83
2017-11-20T05:42:55.321Z,3.35
2017-11-20T05:45:23.910Z,3.50
2017-11-20T05:47:52.324Z,3.40
2017-11-20T05:50:21.160Z,3.42
2017-11-20T05:52:50.925Z,3.15
2017-11-20T05:55:19.563Z,3.62
2017-11-20T05:57:47.927Z,2.97
2017-11-20T06:00:16.319Z,3.45
2017-11-20T06:02:44.724Z,3.45
2017-11-20T06:05:13.902Z,3.15
2017-11-20T06:07:42.309Z,2.70
2017-11-20T06:10:10.706Z,3.35
2017-11-20T06:12:39.884Z,3.17
2017-11-20T06:15:08.401Z,3.17
2017-11-20T06:17:38.411Z,2.87
2017-11-20T06:20:06.788Z,3.15
2017-11-20T06:22:35.168Z,2.87
2017-11-20T06:25:03.593Z,3.70
2017-11-20T06:27:31.998Z,3.20
2017-11-20T06:30:00.380Z,4.75
2017-11-20T06:32:28.785Z,5.20
2017-11-20T06:34:58.637Z,7.43
2017-11-20T06:37:27.913Z,7.00
2017-11-20T06:39:58.293Z,8.23
2017-11-20T06:42:26.669Z,9.95
2017-11-20T06:44:55.048Z,9.82
2017-11-20T06:47:23.471Z,10.23
2017-11-20T06:49:51.871Z,11.12
2017-11-20T06:52:20.288Z,10.45
2017-11-20T06:54:48.699Z,10.27
2017-11-20T06:57:17.073Z,10.07
2017-11-20T06:59:45.441Z,9.55
2017-11-20T07:02:14.153Z,8.55
2017-11-20T07:04:42.532Z,8.02
2017-11-20T07:07:10.909Z,8.15
2017-11-20T07:09:40.128Z,8.20
2017-11-20T07:12:09.267Z,8.10
2017-11-20T07:14:37.673Z,8.85
2017-11-20T07:17:06.082Z,7.90
2017-11-20T07:19:35.473Z,8.25
2017-11-20T07:22:03.849Z,6.85
2017-11-20T07:24:32.380Z,7.32
2017-11-20T07:27:03.550Z,7.32
2017-11-20T07:29:49.537Z,7.12
2017-11-20T07:32:18.692Z,7.15
2017-11-20T07:35:16.276Z,7.93
2017-11-20T07:38:02.214Z,7.12
2017-11-20T07:40:48.381Z,7.78
2017-11-20T07:43:17.075Z,7.25
2017-11-20T07:45:45.453Z,7.22
2017-11-20T07:48:13.876Z,7.28
2017-11-20T07:50:43.034Z,6.78
2017-11-20T07:53:11.425Z,8.82
2017-11-20T07:55:39.851Z,8.95
2017-11-20T07:58:08.989Z,8.90
2017-11-20T08:00:37.381Z,7.57
2017-11-20T08:03:06.050Z,7.30
2017-11-20T08:05:34.428Z,8.45
2017-11-20T08:08:03.626Z,8.40
2017-11-20T08:10:32.023Z,8.30
2017-11-20T08:13:00.633Z,7.43
2017-11-20T08:15:29.805Z,7.82
2017-11-20T08:17:58.303Z,8.50
2017-11-20T08:20:26.716Z,8.85
2017-11-20T08:22:55.103Z,8.93
2017-11-20T08:25:23.735Z,8.30
2017-11-20T08:27:52.105Z,7.70
2017-11-20T08:30:20.481Z,7.78
2017-11-20T08:32:48.916Z,8.77
2017-11-20T08:35:17.296Z,8.57
2017-11-20T08:37:45.690Z,8.45
2017-11-20T08:40:14.109Z,8.95
2017-11-20T08:42:43.995Z,9.25
2017-11-20T08:45:12.373Z,8.55
2017-11-20T08:47:40.956Z,8.63
2017-11-20T08:50:09.363Z,7.90
2017-11-20T08:52:37.740Z,8.35
2017-11-20T08:55:06.194Z,8.63
2017-11-20T08:57:34.810Z,8.85
2017-11-20T09:00:03.242Z,9.77
2017-11-20T09:02:31.718Z,9.50
2017-11-20T09:05:00.095Z,9.02
2017-11-20T09:07:29.253Z,9.25
2017-11-20T09:09:57.728Z,8.68
2017-11-20T09:12:26.113Z,9.38
2017-11-20T09:14:54.487Z,8.45
2017-11-20T09:17:23.705Z,9.55
2017-11-20T09:19:52.084Z,9.40
2017-11-20T09:22:20.483Z,9.03
2017-11-20T09:24:48.921Z,9.10
2017-11-20T09:27:17.745Z,9.40
2017-11-20T09:29:46.138Z,9.07
2017-11-20T09:32:15.389Z,9.20
2017-11-20T09:34:43.783Z,9.77
2017-11-20T09:37:12.192Z,9.02
2017-11-20T09:39:40.627Z,9.90
2017-11-20T09:42:09.033Z,10.10
2017-11-20T09:44:37.419Z,10.70
2017-11-20T09:47:05.840Z,10.87
2017-11-20T09:49:34.217Z,11.70
2017-11-20T09:52:02.622Z,12.05
2017-11-20T09:54:31.743Z,11.33
2017-11-20T09:57:00.139Z,12.50
2017-11-20T09:59:28.511Z,11.90
2017-11-20T10:01:57.469Z,11.57
2017-11-20T10:04:25.836Z,11.43
2017-11-20T10:06:54.220Z,11.50
2017-11-20T10:09:22.778Z,11.70
2017-11-20T10:11:51.932Z,11.37
2017-11-20T10:14:21.151Z,11.57
2017-11-20T10:16:49.657Z,11.30
2017-11-20T10:19:18.769Z,11.98
2017-11-20T10:21:47.968Z,11.10
2017-11-20T10:24:16.390Z,11.40
2017-11-20T10:26:44.774Z,11.40
2017-11-20T10:29:13.164Z,12.30
2017-11-20T10:31:42.184Z,12.50
2017-11-20T10:34:10.589Z,12.50
2017-11-20T10:36:38.989Z,11.73
2017-11-20T10:39:07.437Z,12.00
2017-11-20T10:41:35.823Z,12.73
2017-11-20T10:44:04.239Z,12.80
2017-11-20T10:46:32.660Z,11.20
2017-11-20T10:49:02.393Z,13.27
2017-11-20T10:51:30.783Z,12.90
2017-11-20T10:53:59.192Z,12.50
2017-11-20T10:56:27.590Z,14.20
2017-11-20T10:58:56.744Z,12.10
2017-11-20T11:01:25.534Z,11.27
2017-11-20T11:03:53.905Z,11.10
2017-11-20T11:06:22.624Z,12.03
2017-11-20T11:08:51.950Z,12.37
2017-11-20T11:11:20.328Z,11.07
2017-11-20T11:13:49.920Z,11.77
2017-11-20T11:16:19.255Z,10.90
2017-11-20T11:18:47.677Z,11.87
2017-11-20T11:21:16.477Z,9.87
2017-11-20T11:23:45.256Z,10.30
2017-11-20T11:26:13.994Z,9.37
2017-11-20T11:28:42.382Z,9.70
2017-11-20T11:31:11.557Z,9.90
2017-11-20T11:33:39.943Z,9.50
2017-11-20T11:36:08.322Z,7.20
2017-11-20T11:38:36.742Z,7.90
2017-11-20T11:41:05.248Z,7.33
2017-11-20T11:43:33.627Z,6.60
2017-11-20T11:46:02.158Z,6.40
2017-11-20T11:48:31.319Z,6.60
2017-11-20T11:51:00.449Z,6.00
2017-11-20T11:53:29.676Z,6.10
2017-11-20T11:55:58.771Z,5.83
2017-11-20T11:58:27.173Z,6.00
2017-11-20T12:00:55.585Z,4.77
2017-11-20T12:03:24.741Z,4.47
2017-11-20T12:05:53.473Z,5.80
2017-11-20T12:08:22.089Z,4.57
2017-11-20T12:10:50.720Z,4.57
2017-11-20T12:13:19.088Z,3.47
2017-11-20T12:15:48.321Z,2.90
2017-11-20T12:18:16.704Z,3.50
2017-11-20T12:20:45.874Z,3.53
2017-11-20T12:23:14.497Z,2.37
2017-11-20T12:25:43.713Z,7.23
2017-11-20T12:28:12.891Z,2.90
2017-11-20T12:30:42.132Z,2.83
2017-11-20T12:33:10.513Z,2.40
2017-11-20T12:35:38.896Z,2.50
2017-11-20T12:38:08.031Z,2.57
2017-11-20T12:40:37.200Z,2.40
2017-11-20T12:43:06.117Z,2.20
2017-11-20T12:45:34.550Z,3.07
2017-11-20T12:48:02.922Z,2.43
2017-11-20T12:50:31.971Z,2.67
2017-11-20T12:53:00.540Z,3.00
2017-11-20T12:55:28.935Z,2.80
2017-11-20T12:57:58.132Z,2.80
2017-11-20T13:00:26.552Z,2.50
2017-11-20T13:02:54.927Z,3.90
2017-11-20T13:05:24.061Z,4.47
2017-11-20T13:07:52.489Z,2.50
2017-11-20T13:10:20.843Z,3.90
2017-11-20T13:12:49.213Z,3.87
2017-11-20T13:15:17.689Z,4.20
2017-11-20T13:17:46.314Z,4.17
2017-11-20T13:20:15.163Z,4.67
2017-11-20T13:22:43.596Z,4.43
2017-11-20T13:25:12.744Z,5.97
2017-11-20T13:27:41.113Z,5.87
2017-11-20T13:30:09.537Z,6.10
2017-11-20T13:32:38.727Z,5.90
2017-11-20T13:35:07.132Z,6.13
2017-11-20T13:37:35.888Z,6.00
2017-11-20T13:40:04.279Z,5.83
2017-11-20T13:42:32.652Z,6.03
2017-11-20T13:45:01.087Z,6.15
2017-11-20T13:47:29.512Z,6.00
2017-11-20T13:49:57.904Z,6.07
2017-11-20T13:52:27.089Z,5.95
2017-11-20T13:54:55.541Z,5.87
2017-11-20T13:57:24.734Z,6.00
2017-11-20T13:59:53.231Z,6.00
2017-11-20T14:02:21.637Z,6.03
2017-11-20T14:04:51.033Z,5.40
2017-11-20T14:07:19.671Z,6.10
2017-11-20T14:09:48.848Z,6.83
2017-11-20T14:12:18.406Z,6.05
2017-11-20T14:14:46.830Z,5.45
2017-11-20T14:17:16.029Z,5.75
2017-11-20T14:19:44.445Z,5.97
2017-11-20T14:22:13.249Z,5.20
2017-11-20T14:24:41.625Z,6.37
2017-11-20T14:27:10.014Z,6.25
2017-11-20T14:29:38.748Z,5.45
2017-11-20T14:32:07.136Z,6.07
2017-11-20T14:34:35.540Z,7.73
2017-11-20T14:37:03.946Z,7.53
2017-11-20T14:39:33.099Z,7.00
2017-11-20T14:42:01.482Z,7.93
2017-11-20T14:44:30.177Z,7.05
2017-11-20T14:47:02.690Z,8.52
2017-11-20T14:49:31.676Z,8.80
2017-11-20T14:52:05.143Z,8.65
2017-11-20T14:54:34.261Z,8.60
2017-11-20T14:57:02.666Z,8.45
2017-11-20T14:59:31.049Z,9.40
2017-11-20T15:02:01.150Z,8.63
2017-11-20T15:04:29.524Z,10.57
2017-11-20T15:06:57.902Z,9.50
2017-11-20T15:09:26.365Z,8.80
2017-11-20T15:11:54.742Z,10.00
2017-11-20T15:14:23.159Z,9.40
2017-11-20T15:16:51.587Z,10.52
2017-11-20T15:19:20.021Z,9.95
2017-11-20T15:21:48.426Z,10.15
2017-11-20T15:24:19.057Z,11.68
2017-11-20T15:26:48.976Z,10.15
2017-11-20T15:29:19.074Z,10.30
2017-11-20T15:31:47.472Z,10.50
2017-11-20T15:34:15.869Z,11.38
2017-11-20T15:36:44.303Z,11.70
2017-11-20T15:39:12.707Z,11.20
2017-11-20T15:41:41.109Z,11.50
2017-11-20T15:44:09.753Z,11.57
2017-11-20T15:46:38.900Z,11.57
2017-11-20T15:49:07.306Z,12.20
2017-11-20T15:51:35.750Z,12.75
2017-11-20T15:54:04.145Z,12.20
2017-11-20T15:56:32.538Z,14.32
2017-11-20T15:59:01.871Z,14.07
2017-11-20T16:01:30.350Z,11.32
2017-11-20T16:03:58.767Z,13.18
2017-11-20T16:06:28.025Z,12.98
2017-11-20T16:08:56.409Z,13.55
2017-11-20T16:11:25.473Z,13.50
2017-11-20T16:13:53.943Z,14.10
2017-11-20T16:16:22.334Z,12.95
2017-11-20T16:18:50.761Z,13.70
2017-11-20T16:21:19.457Z,13.75
2017-11-20T16:23:48.616Z,14.25
2017-11-20T16:26:17.021Z,14.40
2017-11-20T16:28:46.197Z,13.70
2017-11-20T16:31:14.581Z,14.43
2017-11-20T16:33:42.959Z,14.02
2017-11-20T16:36:11.392Z,14.48
2017-11-20T16:38:40.464Z,14.27
2017-11-20T16:41:08.863Z,15.43
2017-11-20T16:43:37.290Z,15.32
2017-11-20T16:46:05.669Z,15.18
2017-11-20T16:48:34.937Z,14.70
2017-11-20T16:51:03.409Z,15.82
2017-11-20T16:53:31.796Z,14.85
2017-11-20T16:56:00.198Z,16.75
2017-11-20T16:58:46.283Z,16.83
2017-11-20T17:01:14.660Z,17.92
2017-11-20T17:03:43.047Z,17.73
2017-11-20T17:06:12.379Z,17.58
2017-11-20T17:08:40.781Z,15.95
2017-11-20T17:11:09.926Z,17.02
2017-11-20T17:13:38.346Z,18.10
2017-11-20T17:16:07.207Z,17.62
2017-11-20T17:18:35.604Z,19.60
2017-11-20T17:21:04.025Z,19.20
2017-11-20T17:23:32.401Z,20.15
2017-11-20T17:26:01.574Z,20.45
2017-11-20T17:28:30.078Z,20.62
2017-11-20T17:30:58.470Z,19.70
2017-11-20T17:33:27.640Z,19.52
2017-11-20T17:35:56.073Z,19.42
2017-11-20T17:38:24.499Z,19.87
2017-11-20T17:40:53.674Z,18.30
2017-11-20T17:43:22.104Z,19.52
2017-11-20T17:45:51.278Z,19.10
2017-11-20T17:48:19.695Z,17.60
2017-11-20T17:50:48.493Z,17.00
2017-11-20T17:53:16.900Z,15.30
2017-11-20T17:55:46.817Z,17.00
2017-11-20T17:58:15.519Z,15.95
2017-11-20T18:00:43.915Z,17.20
2017-11-20T18:03:12.881Z,16.58
2017-11-20T18:05:41.322Z,15.95
2017-11-20T18:08:09.716Z,15.50
2017-11-20T18:10:38.098Z,16.60
2017-11-20T18:13:07.469Z,17.17
2017-11-20T18:15:36.642Z,16.90
2017-11-20T18:18:05.092Z,16.20
2017-11-20T18:20:34.013Z,16.48
2017-11-20T18:23:02.741Z,16.40
2017-11-20T18:25:31.141Z,17.02
2017-11-20T18:27:59.573Z,17.35
2017-11-20T18:30:27.972Z,17.90
2017-11-20T18:32:57.188Z,18.27
2017-11-20T18:35:25.678Z,18.65
2017-11-20T18:37:54.080Z,17.95
2017-11-20T18:40:22.473Z,18.50
2017-11-20T18:42:51.027Z,18.05
2017-11-20T18:45:19.486Z,18.02
2017-11-20T18:47:47.876Z,16.58
2017-11-20T18:50:16.331Z,18.00
2017-11-20T18:52:45.554Z,18.90
2017-11-20T18:55:13.970Z,16.60
2017-11-20T18:57:42.469Z,18.45
2017-11-20T19:00:28.443Z,19.55
2017-11-20T19:03:10.347Z,19.80
2017-11-20T19:05:56.528Z,20.75
2017-11-20T19:11:30.463Z,20.42
2017-11-20T19:13:59.044Z,20.05
2017-11-20T19:16:27.425Z,19.25
2017-11-20T19:18:55.827Z,20.30
2017-11-20T19:21:25.029Z,19.37
2017-11-20T19:23:53.429Z,20.40
2017-11-20T19:26:21.834Z,19.27
2017-11-20T19:28:50.621Z,18.87
2017-11-20T19:31:19.689Z,19.98
2017-11-20T19:33:48.870Z,20.40
2017-11-20T19:36:17.408Z,21.02
2017-11-20T19:38:46.734Z,21.17
2017-11-20T19:41:15.118Z,19.73
2017-11-20T19:43:43.560Z,19.85
2017-11-20T19:46:11.951Z,21.05
2017-11-20T19:48:40.596Z,21.15
2017-11-20T19:51:10.716Z,20.15
2017-11-20T19:53:39.865Z,19.33
2017-11-20T19:56:08.272Z,20.55
2017-11-20T19:58:37.139Z,22.95
2017-11-20T20:01:05.542Z,22.25
2017-11-20T20:03:33.920Z,20.55
2017-11-20T20:06:02.362Z,19.85
2017-11-20T20:08:30.776Z,20.75
2017-11-20T20:10:59.927Z,18.75
2017-11-20T20:13:46.122Z,19.12
2017-11-20T20:16:21.857Z,21.08
2017-11-20T20:18:51.056Z,22.70
2017-11-20T20:21:20.258Z,22.08
2017-11-20T20:23:49.781Z,21.80
2017-11-20T20:26:18.212Z,20.05
2017-11-20T20:28:46.609Z,22.08
2017-11-20T20:31:15.761Z,21.17
2017-11-20T20:33:44.265Z,20.80
2017-11-20T20:36:12.658Z,21.52
2017-11-20T20:38:41.072Z,22.40
2017-11-20T20:41:09.535Z,21.50
2017-11-20T20:43:38.076Z,22.48
2017-11-20T20:46:06.478Z,23.83
2017-11-20T20:48:34.906Z,22.33
2017-11-20T20:51:03.317Z,21.42
2017-11-20T20:53:31.709Z,22.42
2017-11-20T20:56:00.615Z,21.35
2017-11-20T20:58:29.038Z,22.13
2017-11-20T21:00:57.442Z,21.42
2017-11-20T21:03:25.907Z,22.45
2017-11-20T21:05:54.517Z,22.25
2017-11-20T21:08:22.921Z,22.58
2017-11-20T21:10:56.914Z,22.05
2017-11-20T21:13:26.117Z,21.73
2017-11-20T21:15:54.512Z,22.13
2017-11-20T21:18:23.588Z,21.85
2017-11-20T21:20:52.878Z,21.12
2017-11-20T21:23:21.296Z,23.00
2017-11-20T21:25:49.733Z,21.45
2017-11-20T21:28:18.189Z,20.23
2017-11-20T21:30:46.587Z,21.08
2017-11-20T21:33:15.792Z,21.35
2017-11-20T21:35:44.218Z,19.62
2017-11-20T21:38:13.361Z,18.35
2017-11-20T21:40:42.510Z,19.50
2017-11-20T21:43:10.899Z,19.98
2017-11-20T21:45:39.292Z,19.60
2017-11-20T21:48:07.720Z,19.45
2017-11-20T21:50:36.114Z,17.52
2017-11-20T21:53:04.515Z,19.35
2017-11-20T21:55:32.933Z,17.90
2017-11-20T21:58:01.308Z,17.60
2017-11-20T22:00:30.535Z,17.65
2017-11-20T22:02:59.135Z,17.75
2017-11-20T22:05:27.518Z,16.98
2017-11-20T22:07:56.325Z,17.95
2017-11-20T22:10:25.532Z,18.35
2017-11-20T22:16:06.591Z,18.17
2017-11-20T22:18:34.999Z,17.02
2017-11-20T22:21:03.452Z,19.27
2017-11-20T22:23:32.300Z,18.00
2017-11-20T22:26:00.693Z,15.80
2017-11-20T22:28:29.881Z,16.60
2017-11-20T22:30:58.353Z,17.85
2017-11-20T22:33:26.746Z,17.20
2017-11-20T22:35:55.368Z,18.23
2017-11-20T22:38:23.785Z,16.95
2017-11-20T22:40:52.944Z,18.05
2017-11-20T22:43:21.341Z,18.12
2017-11-20T22:45:51.146Z,18.80
2017-11-20T22:48:19.661Z,19.08
2017-11-20T22:50:48.450Z,19.08
2017-11-20T22:53:17.651Z,18.98
2017-11-20T22:55:46.072Z,19.55
2017-11-20T22:58:14.494Z,20.10
2017-11-20T23:00:43.697Z,19.98
2017-11-20T23:03:13.678Z,20.92
2017-11-20T23:05:42.122Z,21.80
2017-11-20T23:08:10.650Z,21.20
2017-11-20T23:10:39.076Z,22.73
2017-11-20T23:13:07.756Z,21.45
2017-11-20T23:15:36.213Z,22.13
2017-11-20T23:18:05.757Z,22.67
2017-11-20T23:20:34.153Z,19.52
2017-11-20T23:23:02.578Z,19.52
2017-11-20T23:25:31.740Z,19.15
2017-11-20T23:28:00.117Z,18.62
2017-11-20T23:30:28.637Z,19.33
2017-11-20T23:32:57.035Z,16.85
2017-11-20T23:35:25.442Z,17.98
2017-11-20T23:37:53.881Z,17.37
2017-11-20T23:40:22.275Z,16.40
2017-11-20T23:42:50.660Z,17.17
2017-11-20T23:45:19.862Z,16.37
2017-11-20T23:47:48.236Z,16.33
2017-11-20T23:50:16.664Z,15.88
2017-11-20T23:52:45.152Z,15.48
2017-11-20T23:55:13.727Z,14.68
2017-11-20T23:57:43.041Z,14.25
